sensor_id;sensor_type;location;lat;lon;timestamp;pressure;altitude;pressure_sealevel;temperature;humidity
73415;BME280;61633;53.742;-2.990;2022-08-19T00:01:05;101103.97;;;15.78;50.08
73415;BME280;61633;53.742;-2.990;2022-08-19T00:03:29;101100.06;;;15.97;48.51
73415;BME280;61633;53.742;-2.990;2022-08-19T00:05:54;101101.38;;;16.33;47.86
73415;BME280;61633;53.742;-2.990;2022-08-19T00:08:20;101101.57;;;15.71;48.93
73415;BME280;61633;53.742;-2.990;2022-08-19T00:10:46;101099.48;;;15.67;49.41
73415;BME280;61633;53.742;-2.990;2022-08-19T00:13:11;101098.03;;;16.43;49.12
73415;BME280;61633;53.742;-2.990;2022-08-19T00:15:37;101094.48;;;15.79;49.27
73415;BME280;61633;53.742;-2.990;2022-08-19T00:18:03;101096.70;;;15.56;49.43
73415;BME280;61633;53.742;-2.990;2022-08-19T00:20:28;101096.40;;;15.80;49.47
73415;BME280;61633;53.742;-2.990;2022-08-19T00:22:53;101089.81;;;15.95;49.26
73415;BME280;61633;53.742;-2.990;2022-08-19T00:25:19;101091.32;;;15.91;49.17
73415;BME280;61633;53.742;-2.990;2022-08-19T00:27:44;101090.34;;;16.08;50.40
73415;BME280;61633;53.742;-2.990;2022-08-19T00:30:10;101087.25;;;15.71;48.83
73415;BME280;61633;53.742;-2.990;2022-08-19T00:32:35;101093.47;;;15.85;49.41
73415;BME280;61633;53.742;-2.990;2022-08-19T00:35:00;101098.10;;;15.32;49.96
73415;BME280;61633;53.742;-2.990;2022-08-19T00:37:25;101092.33;;;15.53;51.09
73415;BME280;61633;53.742;-2.990;2022-08-19T00:39:51;101094.86;;;16.23;50.42
73415;BME280;61633;53.742;-2.990;2022-08-19T00:42:17;101101.09;;;16.11;48.98
73415;BME280;61633;53.742;-2.990;2022-08-19T00:44:41;101107.93;;;15.87;49.47
73415;BME280;61633;53.742;-2.990;2022-08-19T00:47:07;101101.24;;;15.92;48.10
73415;BME280;61633;53.742;-2.990;2022-08-19T00:49:36;101105.39;;;15.40;49.86
73415;BME280;61633;53.742;-2.990;2022-08-19T00:52:03;101101.68;;;15.69;49.29
73415;BME280;61633;53.742;-2.990;2022-08-19T00:54:24;101103.57;;;15.35;50.12
73415;BME280;61633;53.742;-2.990;2022-08-19T00:56:51;101105.74;;;15.88;50.18
73415;BME280;61633;53.742;-2.990;2022-08-19T00:59:15;101109.44;;;15.55;50.32
73415;BME280;61633;53.742;-2.990;2022-08-19T01:01:42;101117.92;;;16.10;49.66
73415;BME280;61633;53.742;-2.990;2022-08-19T01:04:05;101117.92;;;15.93;50.21
73415;BME280;61633;53.742;-2.990;2022-08-19T01:06:31;101118.48;;;15.88;51.15
73415;BME280;61633;53.742;-2.990;2022-08-19T01:08:56;101123.44;;;15.21;52.65
73415;BME280;61633;53.742;-2.990;2022-08-19T01:11:21;101126.21;;;14.51;53.37
73415;BME280;61633;53.742;-2.990;2022-08-19T01:13:47;101118.99;;;15.29;51.52
73415;BME280;61633;53.742;-2.990;2022-08-19T01:16:13;101126.52;;;15.61;51.35
73415;BME280;61633;53.742;-2.990;2022-08-19T01:18:40;101120.93;;;15.47;52.07
73415;BME280;61633;53.742;-2.990;2022-08-19T01:21:09;101122.30;;;15.51;52.48
73415;BME280;61633;53.742;-2.990;2022-08-19T01:23:29;101118.82;;;15.23;51.90
73415;BME280;61633;53.742;-2.990;2022-08-19T01:25:55;101120.18;;;15.90;51.42
73415;BME280;61633;53.742;-2.990;2022-08-19T01:28:23;101122.95;;;15.51;50.83
73415;BME280;61633;53.742;-2.990;2022-08-19T01:30:46;101121.73;;;15.91;49.64
73415;BME280;61633;53.742;-2.990;2022-08-19T01:33:12;101121.14;;;15.87;49.97
73415;BME280;61633;53.742;-2.990;2022-08-19T01:35:37;101115.93;;;15.65;51.36
73415;BME280;61633;53.742;-2.990;2022-08-19T01:38:07;101119.64;;;15.57;51.07
73415;BME280;61633;53.742;-2.990;2022-08-19T01:40:30;101128.97;;;15.11;52.00
73415;BME280;61633;53.742;-2.990;2022-08-19T01:42:53;101131.71;;;15.32;51.77
73415;BME280;61633;53.742;-2.990;2022-08-19T01:45:19;101128.17;;;15.02;53.40
73415;BME280;61633;53.742;-2.990;2022-08-19T01:47:44;101129.57;;;15.35;52.60
73415;BME280;61633;53.742;-2.990;2022-08-19T01:50:11;101128.06;;;14.60;53.33
73415;BME280;61633;53.742;-2.990;2022-08-19T01:52:35;101134.05;;;15.32;52.87
73415;BME280;61633;53.742;-2.990;2022-08-19T01:55:00;101131.30;;;15.39;51.55
73415;BME280;61633;53.742;-2.990;2022-08-19T01:57:25;101141.19;;;14.77;52.71
73415;BME280;61633;53.742;-2.990;2022-08-19T01:59:51;101142.51;;;15.09;52.90
73415;BME280;61633;53.742;-2.990;2022-08-19T02:02:17;101135.58;;;15.07;52.59
73415;BME280;61633;53.742;-2.990;2022-08-19T02:04:42;101139.82;;;14.66;53.13
73415;BME280;61633;53.742;-2.990;2022-08-19T02:07:08;101135.45;;;14.67;52.24
73415;BME280;61633;53.742;-2.990;2022-08-19T02:09:33;101132.66;;;15.03;52.47
73415;BME280;61633;53.742;-2.990;2022-08-19T02:11:59;101126.63;;;15.24;51.30
73415;BME280;61633;53.742;-2.990;2022-08-19T02:14:24;101131.66;;;15.10;51.40
73415;BME280;61633;53.742;-2.990;2022-08-19T02:16:49;101137.66;;;14.85;51.44
73415;BME280;61633;53.742;-2.990;2022-08-19T02:19:14;101136.09;;;15.02;50.84
73415;BME280;61633;53.742;-2.990;2022-08-19T02:21:40;101137.76;;;14.93;51.49
73415;BME280;61633;53.742;-2.990;2022-08-19T02:24:06;101146.50;;;14.61;51.96
73415;BME280;61633;53.742;-2.990;2022-08-19T02:26:32;101151.16;;;15.11;51.56
73415;BME280;61633;53.742;-2.990;2022-08-19T02:28:57;101158.75;;;14.82;51.07
73415;BME280;61633;53.742;-2.990;2022-08-19T02:31:24;101166.16;;;15.05;49.66
73415;BME280;61633;53.742;-2.990;2022-08-19T02:33:48;101161.34;;;15.10;49.40
73415;BME280;61633;53.742;-2.990;2022-08-19T02:36:15;101161.80;;;15.08;49.42
73415;BME280;61633;53.742;-2.990;2022-08-19T02:38:39;101161.21;;;15.46;48.65
73415;BME280;61633;53.742;-2.990;2022-08-19T02:41:08;101168.17;;;15.33;49.20
73415;BME280;61633;53.742;-2.990;2022-08-19T02:43:31;101168.67;;;15.77;47.78
73415;BME280;61633;53.742;-2.990;2022-08-19T02:45:55;101168.05;;;15.89;47.93
73415;BME280;61633;53.742;-2.990;2022-08-19T02:48:22;101171.17;;;15.87;48.02
73415;BME280;61633;53.742;-2.990;2022-08-19T02:50:47;101176.64;;;14.66;50.22
73415;BME280;61633;53.742;-2.990;2022-08-19T02:53:12;101178.12;;;14.44;49.15
73415;BME280;61633;53.742;-2.990;2022-08-19T02:58:02;101174.05;;;15.43;48.67
73415;BME280;61633;53.742;-2.990;2022-08-19T03:00:27;101190.52;;;15.38;49.49
73415;BME280;61633;53.742;-2.990;2022-08-19T03:02:53;101189.10;;;15.61;48.79
73415;BME280;61633;53.742;-2.990;2022-08-19T03:05:19;101198.06;;;15.66;49.23
73415;BME280;61633;53.742;-2.990;2022-08-19T03:07:43;101194.58;;;15.43;49.65
73415;BME280;61633;53.742;-2.990;2022-08-19T03:10:09;101190.85;;;15.05;49.21
73415;BME280;61633;53.742;-2.990;2022-08-19T03:12:37;101187.57;;;15.77;48.81
73415;BME280;61633;53.742;-2.990;2022-08-19T03:15:00;101189.55;;;15.97;48.23
73415;BME280;61633;53.742;-2.990;2022-08-19T03:17:26;101184.20;;;15.66;48.36
73415;BME280;61633;53.742;-2.990;2022-08-19T03:19:51;101186.06;;;15.78;48.63
73415;BME280;61633;53.742;-2.990;2022-08-19T03:22:17;101193.60;;;15.64;49.26
73415;BME280;61633;53.742;-2.990;2022-08-19T03:24:43;101188.65;;;15.78;48.27
73415;BME280;61633;53.742;-2.990;2022-08-19T03:27:08;101193.40;;;14.95;50.21
73415;BME280;61633;53.742;-2.990;2022-08-19T03:29:37;101195.88;;;15.11;49.42
73415;BME280;61633;53.742;-2.990;2022-08-19T03:31:59;101194.43;;;14.85;51.00
73415;BME280;61633;53.742;-2.990;2022-08-19T03:34:27;101194.42;;;15.08;50.72
73415;BME280;61633;53.742;-2.990;2022-08-19T03:36:49;101195.67;;;15.64;49.86
73415;BME280;61633;53.742;-2.990;2022-08-19T03:39:16;101200.18;;;14.94;51.54
73415;BME280;61633;53.742;-2.990;2022-08-19T03:41:42;101204.44;;;15.29;51.00
73415;BME280;61633;53.742;-2.990;2022-08-19T03:44:07;101195.10;;;15.75;48.98
73415;BME280;61633;53.742;-2.990;2022-08-19T03:46:32;101190.97;;;15.55;49.25
73415;BME280;61633;53.742;-2.990;2022-08-19T03:48:59;101189.77;;;15.86;49.05
73415;BME280;61633;53.742;-2.990;2022-08-19T03:51:24;101189.30;;;15.76;49.29
73415;BME280;61633;53.742;-2.990;2022-08-19T03:53:47;101187.83;;;15.68;49.68
73415;BME280;61633;53.742;-2.990;2022-08-19T03:56:14;101189.77;;;15.54;49.50
73415;BME280;61633;53.742;-2.990;2022-08-19T03:58:39;101193.78;;;15.47;50.71
73415;BME280;61633;53.742;-2.990;2022-08-19T04:01:07;101198.83;;;15.33;50.40
73415;BME280;61633;53.742;-2.990;2022-08-19T04:03:29;101195.96;;;15.06;50.22
73415;BME280;61633;53.742;-2.990;2022-08-19T04:05:55;101194.99;;;16.48;48.29
73415;BME280;61633;53.742;-2.990;2022-08-19T04:08:20;101198.73;;;15.96;48.27
73415;BME280;61633;53.742;-2.990;2022-08-19T04:10:46;101205.53;;;15.37;49.79
73415;BME280;61633;53.742;-2.990;2022-08-19T04:13:11;101208.21;;;16.53;48.31
73415;BME280;61633;53.742;-2.990;2022-08-19T04:15:39;101214.94;;;15.09;51.29
73415;BME280;61633;53.742;-2.990;2022-08-19T04:18:02;101216.68;;;14.93;50.81
73415;BME280;61633;53.742;-2.990;2022-08-19T04:20:28;101218.95;;;15.07;50.23
73415;BME280;61633;53.742;-2.990;2022-08-19T04:22:53;101222.09;;;15.37;49.96
73415;BME280;61633;53.742;-2.990;2022-08-19T04:25:19;101219.14;;;14.68;50.66
73415;BME280;61633;53.742;-2.990;2022-08-19T04:27:44;101223.49;;;15.40;49.39
73415;BME280;61633;53.742;-2.990;2022-08-19T04:30:11;101230.39;;;15.43;48.85
73415;BME280;61633;53.742;-2.990;2022-08-19T04:32:36;101231.50;;;15.09;49.10
73415;BME280;61633;53.742;-2.990;2022-08-19T04:35:01;101228.71;;;15.12;48.19
73415;BME280;61633;53.742;-2.990;2022-08-19T04:37:27;101222.30;;;15.96;46.58
73415;BME280;61633;53.742;-2.990;2022-08-19T04:39:52;101227.52;;;15.65;46.89
73415;BME280;61633;53.742;-2.990;2022-08-19T04:42:18;101230.56;;;16.61;46.32
73415;BME280;61633;53.742;-2.990;2022-08-19T04:44:42;101231.71;;;15.98;47.58
73415;BME280;61633;53.742;-2.990;2022-08-19T04:47:08;101244.96;;;15.35;47.83
73415;BME280;61633;53.742;-2.990;2022-08-19T04:49:33;101244.40;;;15.85;46.71
73415;BME280;61633;53.742;-2.990;2022-08-19T04:51:59;101246.10;;;15.62;46.63
73415;BME280;61633;53.742;-2.990;2022-08-19T04:54:26;101246.74;;;14.75;48.17
73415;BME280;61633;53.742;-2.990;2022-08-19T04:56:50;101246.31;;;15.95;46.96
73415;BME280;61633;53.742;-2.990;2022-08-19T04:59:16;101249.98;;;15.60;47.50
73415;BME280;61633;53.742;-2.990;2022-08-19T05:01:42;101258.71;;;15.07;48.54
73415;BME280;61633;53.742;-2.990;2022-08-19T05:04:07;101259.64;;;14.96;47.93
73415;BME280;61633;53.742;-2.990;2022-08-19T05:06:33;101262.96;;;15.37;48.10
73415;BME280;61633;53.742;-2.990;2022-08-19T05:08:59;101269.00;;;15.57;47.25
73415;BME280;61633;53.742;-2.990;2022-08-19T05:11:26;101276.11;;;15.09;48.90
73415;BME280;61633;53.742;-2.990;2022-08-19T05:13:49;101273.40;;;15.06;48.91
73415;BME280;61633;53.742;-2.990;2022-08-19T05:16:16;101261.39;;;15.87;47.42
73415;BME280;61633;53.742;-2.990;2022-08-19T05:18:40;101262.01;;;15.52;47.19
73415;BME280;61633;53.742;-2.990;2022-08-19T05:21:07;101255.48;;;15.84;46.12
73415;BME280;61633;53.742;-2.990;2022-08-19T05:23:31;101259.88;;;15.55;47.04
73415;BME280;61633;53.742;-2.990;2022-08-19T05:25:56;101271.22;;;14.80;49.25
73415;BME280;61633;53.742;-2.990;2022-08-19T05:28:22;101260.27;;;15.50;46.44
73415;BME280;61633;53.742;-2.990;2022-08-19T05:30:47;101270.27;;;14.93;48.27
73415;BME280;61633;53.742;-2.990;2022-08-19T05:33:12;101270.58;;;15.53;47.04
73415;BME280;61633;53.742;-2.990;2022-08-19T05:35:38;101272.54;;;15.72;46.60
73415;BME280;61633;53.742;-2.990;2022-08-19T05:38:04;101268.73;;;16.25;45.57
73415;BME280;61633;53.742;-2.990;2022-08-19T05:40:29;101269.41;;;15.81;46.50
73415;BME280;61633;53.742;-2.990;2022-08-19T05:42:56;101274.19;;;14.61;48.89
73415;BME280;61633;53.742;-2.990;2022-08-19T05:45:21;101273.03;;;14.57;49.00
73415;BME280;61633;53.742;-2.990;2022-08-19T05:47:45;101274.41;;;14.54;48.72
73415;BME280;61633;53.742;-2.990;2022-08-19T05:50:11;101276.80;;;14.91;48.40
73415;BME280;61633;53.742;-2.990;2022-08-19T05:52:37;101276.91;;;15.59;47.66
73415;BME280;61633;53.742;-2.990;2022-08-19T05:55:02;101277.02;;;15.61;46.77
73415;BME280;61633;53.742;-2.990;2022-08-19T05:57:27;101273.72;;;15.57;45.55
73415;BME280;61633;53.742;-2.990;2022-08-19T05:59:53;101276.00;;;15.59;45.61
73415;BME280;61633;53.742;-2.990;2022-08-19T06:02:18;101276.78;;;15.01;47.46
73415;BME280;61633;53.742;-2.990;2022-08-19T06:04:43;101283.19;;;14.80;48.27
73415;BME280;61633;53.742;-2.990;2022-08-19T06:07:08;101282.92;;;14.85;48.27
73415;BME280;61633;53.742;-2.990;2022-08-19T06:09:35;101284.79;;;14.57;50.13
73415;BME280;61633;53.742;-2.990;2022-08-19T06:11:59;101284.76;;;15.06;49.58
73415;BME280;61633;53.742;-2.990;2022-08-19T06:14:27;101289.86;;;15.38;48.12
73415;BME280;61633;53.742;-2.990;2022-08-19T06:16:51;101294.81;;;15.18;48.55
73415;BME280;61633;53.742;-2.990;2022-08-19T06:19:18;101288.73;;;15.50;47.45
73415;BME280;61633;53.742;-2.990;2022-08-19T06:21:43;101290.13;;;16.04;46.57
73415;BME280;61633;53.742;-2.990;2022-08-19T06:24:08;101288.57;;;15.88;45.95
73415;BME280;61633;53.742;-2.990;2022-08-19T06:26:33;101295.32;;;15.34;47.81
73415;BME280;61633;53.742;-2.990;2022-08-19T06:28:57;101294.28;;;15.97;46.37
73415;BME280;61633;53.742;-2.990;2022-08-19T06:31:25;101291.61;;;16.06;46.51
73415;BME280;61633;53.742;-2.990;2022-08-19T06:33:48;101292.32;;;15.58;47.18
73415;BME280;61633;53.742;-2.990;2022-08-19T06:36:17;101281.67;;;15.99;46.20
73415;BME280;61633;53.742;-2.990;2022-08-19T06:38:39;101287.75;;;15.78;47.13
73415;BME280;61633;53.742;-2.990;2022-08-19T06:41:06;101284.90;;;15.79;47.25
73415;BME280;61633;53.742;-2.990;2022-08-19T06:43:30;101287.10;;;15.70;47.57
73415;BME280;61633;53.742;-2.990;2022-08-19T06:45:56;101297.67;;;15.29;49.05
73415;BME280;61633;53.742;-2.990;2022-08-19T06:48:21;101304.35;;;15.67;48.18
73415;BME280;61633;53.742;-2.990;2022-08-19T06:50:46;101306.98;;;15.14;49.16
73415;BME280;61633;53.742;-2.990;2022-08-19T06:53:12;101304.27;;;15.40;48.47
73415;BME280;61633;53.742;-2.990;2022-08-19T06:55:37;101303.94;;;15.50;48.66
73415;BME280;61633;53.742;-2.990;2022-08-19T06:58:04;101312.95;;;15.00;49.71
73415;BME280;61633;53.742;-2.990;2022-08-19T07:00:28;101312.86;;;15.04;49.01
73415;BME280;61633;53.742;-2.990;2022-08-19T07:02:53;101308.31;;;15.11;48.26
73415;BME280;61633;53.742;-2.990;2022-08-19T07:05:19;101308.01;;;15.54;48.17
73415;BME280;61633;53.742;-2.990;2022-08-19T07:07:44;101311.47;;;15.14;49.33
73415;BME280;61633;53.742;-2.990;2022-08-19T07:10:10;101307.35;;;15.76;47.77
73415;BME280;61633;53.742;-2.990;2022-08-19T07:12:35;101310.62;;;16.18;47.03
73415;BME280;61633;53.742;-2.990;2022-08-19T07:15:01;101319.46;;;15.63;48.27
73415;BME280;61633;53.742;-2.990;2022-08-19T07:17:27;101322.04;;;15.39;48.50
73415;BME280;61633;53.742;-2.990;2022-08-19T07:19:53;101325.89;;;15.34;48.77
73415;BME280;61633;53.742;-2.990;2022-08-19T07:22:17;101329.93;;;14.85;49.54
73415;BME280;61633;53.742;-2.990;2022-08-19T07:24:43;101327.73;;;16.09;47.54
73415;BME280;61633;53.742;-2.990;2022-08-19T07:27:09;101342.73;;;16.20;47.68
73415;BME280;61633;53.742;-2.990;2022-08-19T07:29:36;101334.49;;;16.28;47.14
73415;BME280;61633;53.742;-2.990;2022-08-19T07:32:01;101335.54;;;17.12;46.05
73415;BME280;61633;53.742;-2.990;2022-08-19T07:34:27;101333.71;;;16.51;46.26
73415;BME280;61633;53.742;-2.990;2022-08-19T07:36:52;101333.67;;;16.16;46.64
73415;BME280;61633;53.742;-2.990;2022-08-19T07:39:20;101341.30;;;16.50;47.50
73415;BME280;61633;53.742;-2.990;2022-08-19T07:41:42;101344.35;;;16.19;48.64
73415;BME280;61633;53.742;-2.990;2022-08-19T07:44:08;101347.93;;;16.44;47.10
73415;BME280;61633;53.742;-2.990;2022-08-19T07:46:38;101352.17;;;15.99;48.05
73415;BME280;61633;53.742;-2.990;2022-08-19T07:48:58;101357.12;;;15.32;48.59
73415;BME280;61633;53.742;-2.990;2022-08-19T07:51:23;101362.51;;;15.87;47.44
73415;BME280;61633;53.742;-2.990;2022-08-19T07:53:49;101369.80;;;15.52;48.79
73415;BME280;61633;53.742;-2.990;2022-08-19T07:56:15;101360.41;;;16.46;46.09
73415;BME280;61633;53.742;-2.990;2022-08-19T07:58:42;101354.58;;;16.85;45.85
73415;BME280;61633;53.742;-2.990;2022-08-19T08:01:08;101358.26;;;15.91;47.40
73415;BME280;61633;53.742;-2.990;2022-08-19T08:03:32;101359.89;;;16.48;46.58
73415;BME280;61633;53.742;-2.990;2022-08-19T08:05:56;101356.59;;;16.73;47.00
73415;BME280;61633;53.742;-2.990;2022-08-19T08:08:22;101359.07;;;16.62;47.52
73415;BME280;61633;53.742;-2.990;2022-08-19T08:10:47;101360.12;;;17.35;45.75
73415;BME280;61633;53.742;-2.990;2022-08-19T08:13:13;101359.64;;;17.29;45.86
73415;BME280;61633;53.742;-2.990;2022-08-19T08:15:39;101364.89;;;16.85;46.04
73415;BME280;61633;53.742;-2.990;2022-08-19T08:18:05;101370.12;;;16.74;45.60
73415;BME280;61633;53.742;-2.990;2022-08-19T08:20:30;101376.01;;;16.66;46.74
73415;BME280;61633;53.742;-2.990;2022-08-19T08:22:55;101371.18;;;16.74;46.30
73415;BME280;61633;53.742;-2.990;2022-08-19T08:25:23;101370.01;;;16.73;46.55
73415;BME280;61633;53.742;-2.990;2022-08-19T08:27:46;101370.47;;;17.06;45.97
73415;BME280;61633;53.742;-2.990;2022-08-19T08:30:22;101374.69;;;16.16;47.75
73415;BME280;61633;53.742;-2.990;2022-08-19T08:32:37;101377.05;;;17.11;46.95
73415;BME280;61633;53.742;-2.990;2022-08-19T08:35:04;101378.31;;;16.41;47.21
73415;BME280;61633;53.742;-2.990;2022-08-19T08:37:28;101380.98;;;16.92;47.44
73415;BME280;61633;53.742;-2.990;2022-08-19T08:39:53;101376.50;;;16.94;46.63
73415;BME280;61633;53.742;-2.990;2022-08-19T08:42:24;101381.75;;;16.21;47.51
73415;BME280;61633;53.742;-2.990;2022-08-19T08:44:48;101387.23;;;15.68;47.86
73415;BME280;61633;53.742;-2.990;2022-08-19T08:47:14;101393.11;;;15.76;48.84
73415;BME280;61633;53.742;-2.990;2022-08-19T08:49:40;101395.05;;;16.25;49.14
73415;BME280;61633;53.742;-2.990;2022-08-19T08:52:05;101390.07;;;16.57;49.42
73415;BME280;61633;53.742;-2.990;2022-08-19T08:54:30;101396.61;;;16.37;48.92
73415;BME280;61633;53.742;-2.990;2022-08-19T08:56:54;101391.79;;;16.57;48.04
73415;BME280;61633;53.742;-2.990;2022-08-19T08:59:26;101388.11;;;17.00;47.42
73415;BME280;61633;53.742;-2.990;2022-08-19T09:01:42;101394.31;;;16.51;48.46
73415;BME280;61633;53.742;-2.990;2022-08-19T09:04:07;101399.17;;;15.37;50.48
73415;BME280;61633;53.742;-2.990;2022-08-19T09:06:38;101392.84;;;16.62;48.99
73415;BME280;61633;53.742;-2.990;2022-08-19T09:09:04;101388.89;;;17.23;47.03
73415;BME280;61633;53.742;-2.990;2022-08-19T09:11:33;101388.21;;;17.29;44.57
73415;BME280;61633;53.742;-2.990;2022-08-19T09:13:56;101386.10;;;17.07;44.71
73415;BME280;61633;53.742;-2.990;2022-08-19T09:16:18;101386.39;;;17.16;45.16
73415;BME280;61633;53.742;-2.990;2022-08-19T09:18:42;101384.24;;;17.79;44.97
73415;BME280;61633;53.742;-2.990;2022-08-19T09:21:06;101386.46;;;18.38;44.11
73415;BME280;61633;53.742;-2.990;2022-08-19T09:23:31;101384.91;;;17.39;45.81
73415;BME280;61633;53.742;-2.990;2022-08-19T09:25:57;101388.21;;;17.74;45.46
73415;BME280;61633;53.742;-2.990;2022-08-19T09:28:23;101393.85;;;17.95;45.42
73415;BME280;61633;53.742;-2.990;2022-08-19T09:30:48;101397.84;;;17.82;44.65
73415;BME280;61633;53.742;-2.990;2022-08-19T09:33:13;101396.11;;;16.94;47.21
73415;BME280;61633;53.742;-2.990;2022-08-19T09:35:39;101395.95;;;17.14;46.49
73415;BME280;61633;53.742;-2.990;2022-08-19T09:38:04;101396.84;;;17.04;45.88
73415;BME280;61633;53.742;-2.990;2022-08-19T09:40:30;101394.05;;;16.72;47.12
73415;BME280;61633;53.742;-2.990;2022-08-19T09:42:55;101397.22;;;16.53;47.72
73415;BME280;61633;53.742;-2.990;2022-08-19T09:45:21;101395.93;;;17.16;46.12
73415;BME280;61633;53.742;-2.990;2022-08-19T09:47:46;101398.42;;;17.73;44.54
73415;BME280;61633;53.742;-2.990;2022-08-19T09:50:12;101394.03;;;17.06;45.75
73415;BME280;61633;53.742;-2.990;2022-08-19T09:52:37;101390.71;;;17.55;45.76
73415;BME280;61633;53.742;-2.990;2022-08-19T09:55:04;101392.95;;;17.72;44.62
73415;BME280;61633;53.742;-2.990;2022-08-19T09:57:28;101397.14;;;17.53;44.80
73415;BME280;61633;53.742;-2.990;2022-08-19T09:59:53;101401.74;;;17.96;44.25
73415;BME280;61633;53.742;-2.990;2022-08-19T10:02:19;101403.40;;;18.32;43.90
73415;BME280;61633;53.742;-2.990;2022-08-19T10:04:44;101405.02;;;17.98;44.21
73415;BME280;61633;53.742;-2.990;2022-08-19T10:07:10;101400.15;;;17.58;45.56
73415;BME280;61633;53.742;-2.990;2022-08-19T10:09:35;101404.03;;;17.63;45.27
73415;BME280;61633;53.742;-2.990;2022-08-19T10:12:01;101398.37;;;18.21;45.26
73415;BME280;61633;53.742;-2.990;2022-08-19T10:14:25;101402.58;;;17.98;44.46
73415;BME280;61633;53.742;-2.990;2022-08-19T10:16:51;101404.41;;;17.66;44.97
73415;BME280;61633;53.742;-2.990;2022-08-19T10:19:17;101404.60;;;16.82;46.20
73415;BME280;61633;53.742;-2.990;2022-08-19T10:21:42;101406.54;;;17.54;46.02
73415;BME280;61633;53.742;-2.990;2022-08-19T10:24:07;101409.37;;;17.78;44.94
73415;BME280;61633;53.742;-2.990;2022-08-19T10:26:36;101409.52;;;18.20;44.72
73415;BME280;61633;53.742;-2.990;2022-08-19T10:28:59;101408.73;;;18.02;44.86
73415;BME280;61633;53.742;-2.990;2022-08-19T10:31:25;101398.99;;;18.76;43.07
73415;BME280;61633;53.742;-2.990;2022-08-19T10:33:51;101403.50;;;17.64;44.23
73415;BME280;61633;53.742;-2.990;2022-08-19T10:36:18;101400.76;;;18.27;44.14
73415;BME280;61633;53.742;-2.990;2022-08-19T10:38:41;101404.56;;;17.88;43.58
73415;BME280;61633;53.742;-2.990;2022-08-19T10:41:08;101396.40;;;17.64;45.44
73415;BME280;61633;53.742;-2.990;2022-08-19T10:43:32;101402.63;;;17.47;46.78
73415;BME280;61633;53.742;-2.990;2022-08-19T10:45:57;101399.78;;;17.71;46.68
73415;BME280;61633;53.742;-2.990;2022-08-19T10:48:22;101406.03;;;16.97;46.59
73415;BME280;61633;53.742;-2.990;2022-08-19T10:50:48;101407.28;;;17.60;46.10
73415;BME280;61633;53.742;-2.990;2022-08-19T10:53:13;101412.29;;;17.09;46.22
73415;BME280;61633;53.742;-2.990;2022-08-19T10:55:38;101412.24;;;17.11;46.49
73415;BME280;61633;53.742;-2.990;2022-08-19T10:58:10;101410.38;;;16.85;46.59
73415;BME280;61633;53.742;-2.990;2022-08-19T11:00:30;101411.55;;;16.97;47.52
73415;BME280;61633;53.742;-2.990;2022-08-19T11:02:55;101405.75;;;17.52;46.25
73415;BME280;61633;53.742;-2.990;2022-08-19T11:05:20;101398.46;;;18.07;44.91
73415;BME280;61633;53.742;-2.990;2022-08-19T11:07:46;101396.85;;;18.18;45.26
73415;BME280;61633;53.742;-2.990;2022-08-19T11:10:13;101392.10;;;18.00;44.01
73415;BME280;61633;53.742;-2.990;2022-08-19T11:12:37;101393.60;;;18.79;42.97
73415;BME280;61633;53.742;-2.990;2022-08-19T11:15:02;101398.92;;;18.19;44.16
73415;BME280;61633;53.742;-2.990;2022-08-19T11:17:27;101400.31;;;18.81;44.09
73415;BME280;61633;53.742;-2.990;2022-08-19T11:19:53;101398.82;;;17.95;43.57
73415;BME280;61633;53.742;-2.990;2022-08-19T11:22:18;101401.80;;;17.90;44.43
73415;BME280;61633;53.742;-2.990;2022-08-19T11:24:44;101393.14;;;18.28;44.60
73415;BME280;61633;53.742;-2.990;2022-08-19T11:27:09;101393.88;;;18.35;44.74
73415;BME280;61633;53.742;-2.990;2022-08-19T11:29:37;101392.70;;;18.79;43.99
73415;BME280;61633;53.742;-2.990;2022-08-19T11:32:04;101394.41;;;18.06;44.45
73415;BME280;61633;53.742;-2.990;2022-08-19T11:34:27;101390.07;;;18.32;43.29
73415;BME280;61633;53.742;-2.990;2022-08-19T11:36:52;101397.07;;;17.94;43.14
73415;BME280;61633;53.742;-2.990;2022-08-19T11:39:20;101399.42;;;18.78;42.77
73415;BME280;61633;53.742;-2.990;2022-08-19T11:41:42;101396.16;;;18.82;44.52
73415;BME280;61633;53.742;-2.990;2022-08-19T11:44:08;101407.34;;;18.15;42.82
73415;BME280;61633;53.742;-2.990;2022-08-19T11:46:34;101410.25;;;19.50;42.32
73415;BME280;61633;53.742;-2.990;2022-08-19T11:49:00;101411.73;;;18.96;42.78
73415;BME280;61633;53.742;-2.990;2022-08-19T11:51:25;101410.90;;;19.06;44.30
73415;BME280;61633;53.742;-2.990;2022-08-19T11:53:50;101419.86;;;18.31;44.98
73415;BME280;61633;53.742;-2.990;2022-08-19T11:56:15;101417.87;;;18.48;43.46
73415;BME280;61633;53.742;-2.990;2022-08-19T11:58:40;101419.55;;;18.13;43.26
73415;BME280;61633;53.742;-2.990;2022-08-19T12:01:07;101417.46;;;18.65;42.64
73415;BME280;61633;53.742;-2.990;2022-08-19T12:03:31;101418.29;;;19.04;42.62
73415;BME280;61633;53.742;-2.990;2022-08-19T12:05:57;101416.07;;;19.00;41.64
73415;BME280;61633;53.742;-2.990;2022-08-19T12:08:22;101411.66;;;18.72;43.28
73415;BME280;61633;53.742;-2.990;2022-08-19T12:10:48;101412.02;;;19.55;42.51
73415;BME280;61633;53.742;-2.990;2022-08-19T12:13:13;101412.05;;;19.03;42.81
73415;BME280;61633;53.742;-2.990;2022-08-19T12:15:40;101418.84;;;17.77;44.69
73415;BME280;61633;53.742;-2.990;2022-08-19T12:18:05;101420.26;;;18.55;43.54
73415;BME280;61633;53.742;-2.990;2022-08-19T12:20:29;101416.50;;;19.00;41.40
73415;BME280;61633;53.742;-2.990;2022-08-19T12:22:55;101424.78;;;18.63;41.12
73415;BME280;61633;53.742;-2.990;2022-08-19T12:25:20;101425.68;;;18.05;41.81
73415;BME280;61633;53.742;-2.990;2022-08-19T12:27:46;101431.74;;;18.84;42.22
73415;BME280;61633;53.742;-2.990;2022-08-19T12:30:12;101438.26;;;18.48;43.20
73415;BME280;61633;53.742;-2.990;2022-08-19T12:32:37;101432.20;;;19.42;41.34